sensor_id;sensor_type;location;lat;lon;timestamp;P1;durP1;ratioP1;P2;durP2;ratioP2
39772;SDS011;25451;51.960;6.250;2022-08-19T00:01:44;9.23;;;5.93;;
39772;SDS011;25451;51.960;6.250;2022-08-19T00:04:13;10.17;;;5.50;;
39772;SDS011;25451;51.960;6.250;2022-08-19T00:06:41;9.30;;;5.78;;
39772;SDS011;25451;51.960;6.250;2022-08-19T00:09:08;8.30;;;5.95;;
39772;SDS011;25451;51.960;6.250;2022-08-19T00:11:37;8.57;;;5.43;;
39772;SDS011;25451;51.960;6.250;2022-08-19T00:14:04;7.03;;;4.95;;
39772;SDS011;25451;51.960;6.250;2022-08-19T00:16:31;8.10;;;5.77;;
39772;SDS011;25451;51.960;6.250;2022-08-19T00:18:57;7.90;;;5.30;;
39772;SDS011;25451;51.960;6.250;2022-08-19T00:21:23;8.53;;;5.60;;
39772;SDS011;25451;51.960;6.250;2022-08-19T00:23:49;6.85;;;5.10;;
39772;SDS011;25451;51.960;6.250;2022-08-19T00:26:14;7.33;;;5.27;;
39772;SDS011;25451;51.960;6.250;2022-08-19T00:28:40;8.65;;;5.18;;
39772;SDS011;25451;51.960;6.250;2022-08-19T00:31:06;7.73;;;5.70;;
39772;SDS011;25451;51.960;6.250;2022-08-19T00:33:33;7.15;;;4.85;;
39772;SDS011;25451;51.960;6.250;2022-08-19T00:36:00;9.52;;;5.43;;
39772;SDS011;25451;51.960;6.250;2022-08-19T00:38:26;7.63;;;5.55;;
39772;SDS011;25451;51.960;6.250;2022-08-19T00:40:52;7.75;;;4.75;;
39772;SDS011;25451;51.960;6.250;2022-08-19T00:43:19;6.97;;;5.00;;
39772;SDS011;25451;51.960;6.250;2022-08-19T00:45:46;8.40;;;5.53;;
39772;SDS011;25451;51.960;6.250;2022-08-19T00:48:12;9.00;;;5.47;;
39772;SDS011;25451;51.960;6.250;2022-08-19T00:50:38;7.70;;;5.30;;
39772;SDS011;25451;51.960;6.250;2022-08-19T00:53:08;9.20;;;5.87;;
39772;SDS011;25451;51.960;6.250;2022-08-19T00:55:35;9.20;;;5.95;;
39772;SDS011;25451;51.960;6.250;2022-08-19T00:58:05;9.60;;;5.90;;
39772;SDS011;25451;51.960;6.250;2022-08-19T01:00:34;8.13;;;5.72;;
39772;SDS011;25451;51.960;6.250;2022-08-19T01:03:05;7.97;;;5.60;;
39772;SDS011;25451;51.960;6.250;2022-08-19T01:05:32;8.60;;;5.63;;
39772;SDS011;25451;51.960;6.250;2022-08-19T01:07:58;8.40;;;5.20;;
39772;SDS011;25451;51.960;6.250;2022-08-19T01:10:27;9.53;;;5.90;;
39772;SDS011;25451;51.960;6.250;2022-08-19T01:12:54;10.07;;;6.13;;
39772;SDS011;25451;51.960;6.250;2022-08-19T01:15:22;7.45;;;4.95;;
39772;SDS011;25451;51.960;6.250;2022-08-19T01:17:51;7.68;;;5.30;;
39772;SDS011;25451;51.960;6.250;2022-08-19T01:20:21;8.48;;;5.72;;
39772;SDS011;25451;51.960;6.250;2022-08-19T01:22:48;9.47;;;6.10;;
39772;SDS011;25451;51.960;6.250;2022-08-19T01:25:17;8.68;;;6.22;;
39772;SDS011;25451;51.960;6.250;2022-08-19T01:27:47;9.57;;;6.13;;
39772;SDS011;25451;51.960;6.250;2022-08-19T01:30:16;9.90;;;5.82;;
39772;SDS011;25451;51.960;6.250;2022-08-19T01:32:45;9.38;;;5.78;;
39772;SDS011;25451;51.960;6.250;2022-08-19T01:35:11;10.60;;;5.87;;
39772;SDS011;25451;51.960;6.250;2022-08-19T01:40:20;7.73;;;5.60;;
39772;SDS011;25451;51.960;6.250;2022-08-19T01:42:48;8.68;;;5.55;;
39772;SDS011;25451;51.960;6.250;2022-08-19T01:45:15;8.30;;;5.38;;
39772;SDS011;25451;51.960;6.250;2022-08-19T01:47:40;12.00;;;7.18;;
39772;SDS011;25451;51.960;6.250;2022-08-19T01:50:07;9.33;;;5.63;;
39772;SDS011;25451;51.960;6.250;2022-08-19T01:52:40;8.90;;;5.82;;
39772;SDS011;25451;51.960;6.250;2022-08-19T01:55:08;7.90;;;5.53;;
39772;SDS011;25451;51.960;6.250;2022-08-19T01:57:36;9.00;;;5.80;;
39772;SDS011;25451;51.960;6.250;2022-08-19T02:00:05;10.48;;;6.25;;
39772;SDS011;25451;51.960;6.250;2022-08-19T02:02:33;11.18;;;6.30;;
39772;SDS011;25451;51.960;6.250;2022-08-19T02:04:59;9.60;;;5.87;;
39772;SDS011;25451;51.960;6.250;2022-08-19T02:07:24;8.17;;;5.70;;
39772;SDS011;25451;51.960;6.250;2022-08-19T02:09:49;8.93;;;5.70;;
39772;SDS011;25451;51.960;6.250;2022-08-19T02:12:15;9.18;;;6.00;;
39772;SDS011;25451;51.960;6.250;2022-08-19T02:14:41;7.70;;;5.65;;
39772;SDS011;25451;51.960;6.250;2022-08-19T02:17:06;8.40;;;5.67;;
39772;SDS011;25451;51.960;6.250;2022-08-19T02:19:32;7.87;;;5.27;;
39772;SDS011;25451;51.960;6.250;2022-08-19T02:21:58;9.40;;;5.88;;
39772;SDS011;25451;51.960;6.250;2022-08-19T02:24:24;8.30;;;5.30;;
39772;SDS011;25451;51.960;6.250;2022-08-19T02:26:50;6.95;;;5.07;;
39772;SDS011;25451;51.960;6.250;2022-08-19T02:29:16;7.67;;;5.10;;
39772;SDS011;25451;51.960;6.250;2022-08-19T02:31:41;9.48;;;5.72;;
39772;SDS011;25451;51.960;6.250;2022-08-19T02:34:07;9.37;;;5.37;;
39772;SDS011;25451;51.960;6.250;2022-08-19T02:36:32;8.13;;;5.10;;
39772;SDS011;25451;51.960;6.250;2022-08-19T02:38:57;10.17;;;5.47;;
39772;SDS011;25451;51.960;6.250;2022-08-19T02:41:24;8.47;;;5.40;;
39772;SDS011;25451;51.960;6.250;2022-08-19T02:43:53;9.48;;;5.18;;
39772;SDS011;25451;51.960;6.250;2022-08-19T02:46:24;7.25;;;5.22;;
39772;SDS011;25451;51.960;6.250;2022-08-19T02:48:53;6.47;;;4.60;;
39772;SDS011;25451;51.960;6.250;2022-08-19T02:51:21;7.80;;;4.83;;
39772;SDS011;25451;51.960;6.250;2022-08-19T02:53:48;8.65;;;5.28;;
39772;SDS011;25451;51.960;6.250;2022-08-19T02:56:13;8.13;;;5.40;;
39772;SDS011;25451;51.960;6.250;2022-08-19T02:58:39;10.43;;;5.57;;
39772;SDS011;25451;51.960;6.250;2022-08-19T03:01:05;8.00;;;5.57;;
39772;SDS011;25451;51.960;6.250;2022-08-19T03:03:30;8.90;;;5.43;;
39772;SDS011;25451;51.960;6.250;2022-08-19T03:06:03;9.80;;;5.68;;
39772;SDS011;25451;51.960;6.250;2022-08-19T03:08:37;10.02;;;6.00;;
39772;SDS011;25451;51.960;6.250;2022-08-19T03:11:04;10.07;;;5.93;;
39772;SDS011;25451;51.960;6.250;2022-08-19T03:13:30;12.10;;;6.20;;
39772;SDS011;25451;51.960;6.250;2022-08-19T03:15:56;10.02;;;6.30;;
39772;SDS011;25451;51.960;6.250;2022-08-19T03:18:22;10.50;;;6.37;;
39772;SDS011;25451;51.960;6.250;2022-08-19T03:20:48;10.70;;;6.80;;
39772;SDS011;25451;51.960;6.250;2022-08-19T03:23:17;9.57;;;6.43;;
39772;SDS011;25451;51.960;6.250;2022-08-19T03:25:44;10.87;;;6.70;;
39772;SDS011;25451;51.960;6.250;2022-08-19T03:28:12;11.35;;;6.68;;
39772;SDS011;25451;51.960;6.250;2022-08-19T03:30:38;12.70;;;6.72;;
39772;SDS011;25451;51.960;6.250;2022-08-19T03:33:06;9.60;;;6.65;;
39772;SDS011;25451;51.960;6.250;2022-08-19T03:35:33;10.77;;;6.57;;
39772;SDS011;25451;51.960;6.250;2022-08-19T03:37:59;9.73;;;6.80;;
39772;SDS011;25451;51.960;6.250;2022-08-19T03:40:25;11.03;;;7.17;;
39772;SDS011;25451;51.960;6.250;2022-08-19T03:42:51;11.50;;;6.82;;
39772;SDS011;25451;51.960;6.250;2022-08-19T03:45:16;10.43;;;6.70;;
39772;SDS011;25451;51.960;6.250;2022-08-19T03:47:41;10.30;;;6.60;;
39772;SDS011;25451;51.960;6.250;2022-08-19T03:50:07;10.17;;;6.70;;
39772;SDS011;25451;51.960;6.250;2022-08-19T03:52:33;10.47;;;6.87;;
39772;SDS011;25451;51.960;6.250;2022-08-19T03:55:00;9.70;;;6.60;;
39772;SDS011;25451;51.960;6.250;2022-08-19T03:57:26;11.07;;;6.70;;
39772;SDS011;25451;51.960;6.250;2022-08-19T03:59:51;9.83;;;6.50;;
39772;SDS011;25451;51.960;6.250;2022-08-19T04:02:17;9.47;;;5.90;;
39772;SDS011;25451;51.960;6.250;2022-08-19T04:04:42;8.90;;;6.00;;
39772;SDS011;25451;51.960;6.250;2022-08-19T04:07:09;9.98;;;6.10;;
39772;SDS011;25451;51.960;6.250;2022-08-19T04:09:35;8.68;;;5.93;;
39772;SDS011;25451;51.960;6.250;2022-08-19T04:12:03;9.30;;;5.78;;
39772;SDS011;25451;51.960;6.250;2022-08-19T04:14:30;7.87;;;5.50;;
39772;SDS011;25451;51.960;6.250;2022-08-19T04:16:56;7.63;;;4.90;;
39772;SDS011;25451;51.960;6.250;2022-08-19T04:19:23;7.40;;;5.60;;
39772;SDS011;25451;51.960;6.250;2022-08-19T04:21:49;7.43;;;5.10;;
39772;SDS011;25451;51.960;6.250;2022-08-19T04:24:17;6.95;;;4.40;;
39772;SDS011;25451;51.960;6.250;2022-08-19T04:26:43;6.72;;;4.38;;
39772;SDS011;25451;51.960;6.250;2022-08-19T04:29:13;7.27;;;5.13;;
39772;SDS011;25451;51.960;6.250;2022-08-19T04:31:42;7.40;;;5.35;;
39772;SDS011;25451;51.960;6.250;2022-08-19T04:34:10;6.90;;;5.05;;
39772;SDS011;25451;51.960;6.250;2022-08-19T04:36:38;7.95;;;4.97;;
39772;SDS011;25451;51.960;6.250;2022-08-19T04:39:07;8.45;;;5.43;;
39772;SDS011;25451;51.960;6.250;2022-08-19T04:41:35;6.43;;;4.40;;
39772;SDS011;25451;51.960;6.250;2022-08-19T04:44:20;8.98;;;5.47;;
39772;SDS011;25451;51.960;6.250;2022-08-19T04:46:46;6.88;;;4.78;;
39772;SDS011;25451;51.960;6.250;2022-08-19T04:49:13;9.30;;;5.15;;
39772;SDS011;25451;51.960;6.250;2022-08-19T04:51:40;7.30;;;4.93;;
39772;SDS011;25451;51.960;6.250;2022-08-19T04:54:07;6.90;;;5.03;;
39772;SDS011;25451;51.960;6.250;2022-08-19T04:56:32;6.95;;;4.72;;
39772;SDS011;25451;51.960;6.250;2022-08-19T04:58:58;7.73;;;5.20;;
39772;SDS011;25451;51.960;6.250;2022-08-19T05:01:28;7.63;;;5.07;;
39772;SDS011;25451;51.960;6.250;2022-08-19T05:03:55;7.03;;;4.77;;
39772;SDS011;25451;51.960;6.250;2022-08-19T05:06:22;7.43;;;5.15;;
39772;SDS011;25451;51.960;6.250;2022-08-19T05:08:48;7.97;;;5.13;;
39772;SDS011;25451;51.960;6.250;2022-08-19T05:13:41;9.27;;;6.30;;
39772;SDS011;25451;51.960;6.250;2022-08-19T05:16:09;7.70;;;5.67;;
39772;SDS011;25451;51.960;6.250;2022-08-19T05:18:36;8.52;;;5.53;;
39772;SDS011;25451;51.960;6.250;2022-08-19T05:21:21;10.63;;;6.68;;
39772;SDS011;25451;51.960;6.250;2022-08-19T05:24:05;10.13;;;6.13;;
39772;SDS011;25451;51.960;6.250;2022-08-19T05:26:35;13.55;;;7.07;;
39772;SDS011;25451;51.960;6.250;2022-08-19T05:29:01;8.90;;;5.87;;
39772;SDS011;25451;51.960;6.250;2022-08-19T05:31:28;12.80;;;6.78;;
39772;SDS011;25451;51.960;6.250;2022-08-19T05:33:53;10.40;;;6.67;;
39772;SDS011;25451;51.960;6.250;2022-08-19T05:36:19;9.83;;;6.60;;
39772;SDS011;25451;51.960;6.250;2022-08-19T05:38:45;10.43;;;6.77;;
39772;SDS011;25451;51.960;6.250;2022-08-19T05:41:11;10.68;;;6.55;;
39772;SDS011;25451;51.960;6.250;2022-08-19T05:43:38;9.57;;;6.43;;
39772;SDS011;25451;51.960;6.250;2022-08-19T05:46:04;9.77;;;6.15;;
39772;SDS011;25451;51.960;6.250;2022-08-19T05:48:31;9.70;;;6.28;;
39772;SDS011;25451;51.960;6.250;2022-08-19T05:51:03;9.37;;;6.67;;
39772;SDS011;25451;51.960;6.250;2022-08-19T05:53:31;9.77;;;6.47;;
39772;SDS011;25451;51.960;6.250;2022-08-19T05:56:03;10.50;;;6.93;;
39772;SDS011;25451;51.960;6.250;2022-08-19T05:58:37;12.70;;;7.50;;
39772;SDS011;25451;51.960;6.250;2022-08-19T06:01:03;10.68;;;6.70;;
39772;SDS011;25451;51.960;6.250;2022-08-19T06:03:34;10.90;;;6.77;;
39772;SDS011;25451;51.960;6.250;2022-08-19T06:06:02;10.30;;;6.78;;
39772;SDS011;25451;51.960;6.250;2022-08-19T06:08:28;13.27;;;7.72;;
39772;SDS011;25451;51.960;6.250;2022-08-19T06:10:54;12.30;;;7.80;;
39772;SDS011;25451;51.960;6.250;2022-08-19T06:13:21;12.32;;;8.07;;
39772;SDS011;25451;51.960;6.250;2022-08-19T06:15:47;12.35;;;7.68;;
39772;SDS011;25451;51.960;6.250;2022-08-19T06:18:13;11.53;;;7.77;;
39772;SDS011;25451;51.960;6.250;2022-08-19T06:20:39;11.40;;;7.80;;
39772;SDS011;25451;51.960;6.250;2022-08-19T06:23:05;11.32;;;8.15;;
39772;SDS011;25451;51.960;6.250;2022-08-19T06:25:30;12.23;;;8.10;;
39772;SDS011;25451;51.960;6.250;2022-08-19T06:27:56;13.33;;;8.37;;
39772;SDS011;25451;51.960;6.250;2022-08-19T06:30:22;10.50;;;7.70;;
39772;SDS011;25451;51.960;6.250;2022-08-19T06:32:47;12.63;;;8.20;;
39772;SDS011;25451;51.960;6.250;2022-08-19T06:35:13;16.70;;;9.80;;
39772;SDS011;25451;51.960;6.250;2022-08-19T06:37:39;21.30;;;12.10;;
39772;SDS011;25451;51.960;6.250;2022-08-19T06:40:05;16.20;;;10.15;;
39772;SDS011;25451;51.960;6.250;2022-08-19T06:42:33;15.73;;;9.60;;
39772;SDS011;25451;51.960;6.250;2022-08-19T06:44:59;14.07;;;8.48;;
39772;SDS011;25451;51.960;6.250;2022-08-19T06:47:28;22.92;;;12.40;;
39772;SDS011;25451;51.960;6.250;2022-08-19T06:49:54;18.40;;;10.83;;
39772;SDS011;25451;51.960;6.250;2022-08-19T06:52:25;18.35;;;11.32;;
39772;SDS011;25451;51.960;6.250;2022-08-19T06:54:50;21.90;;;13.40;;
39772;SDS011;25451;51.960;6.250;2022-08-19T06:57:15;19.03;;;11.83;;
39772;SDS011;25451;51.960;6.250;2022-08-19T06:59:40;22.50;;;12.80;;
39772;SDS011;25451;51.960;6.250;2022-08-19T07:02:06;23.67;;;13.67;;
39772;SDS011;25451;51.960;6.250;2022-08-19T07:04:32;21.50;;;12.73;;
39772;SDS011;25451;51.960;6.250;2022-08-19T07:07:07;23.25;;;13.63;;
39772;SDS011;25451;51.960;6.250;2022-08-19T07:09:34;21.20;;;11.68;;
39772;SDS011;25451;51.960;6.250;2022-08-19T07:12:04;20.73;;;12.53;;
39772;SDS011;25451;51.960;6.250;2022-08-19T07:14:31;22.73;;;12.80;;
39772;SDS011;25451;51.960;6.250;2022-08-19T07:17:00;21.83;;;12.82;;
39772;SDS011;25451;51.960;6.250;2022-08-19T07:19:26;22.87;;;12.93;;
39772;SDS011;25451;51.960;6.250;2022-08-19T07:21:52;23.35;;;13.70;;
39772;SDS011;25451;51.960;6.250;2022-08-19T07:24:19;20.67;;;12.35;;
39772;SDS011;25451;51.960;6.250;2022-08-19T07:26:48;25.52;;;14.48;;
39772;SDS011;25451;51.960;6.250;2022-08-19T07:29:15;25.27;;;13.70;;
39772;SDS011;25451;51.960;6.250;2022-08-19T07:31:41;23.65;;;14.48;;
39772;SDS011;25451;51.960;6.250;2022-08-19T07:34:08;29.60;;;14.97;;
39772;SDS011;25451;51.960;6.250;2022-08-19T07:36:36;27.50;;;14.88;;
39772;SDS011;25451;51.960;6.250;2022-08-19T07:39:07;28.73;;;15.93;;
39772;SDS011;25451;51.960;6.250;2022-08-19T07:41:34;30.55;;;15.43;;
39772;SDS011;25451;51.960;6.250;2022-08-19T07:44:02;28.88;;;15.00;;
39772;SDS011;25451;51.960;6.250;2022-08-19T07:46:31;30.43;;;15.43;;
39772;SDS011;25451;51.960;6.250;2022-08-19T07:48:58;27.92;;;14.45;;
39772;SDS011;25451;51.960;6.250;2022-08-19T07:51:25;27.83;;;15.05;;
39772;SDS011;25451;51.960;6.250;2022-08-19T07:53:51;27.05;;;15.23;;
39772;SDS011;25451;51.960;6.250;2022-08-19T07:56:18;29.17;;;16.10;;
39772;SDS011;25451;51.960;6.250;2022-08-19T07:58:45;29.13;;;14.68;;
39772;SDS011;25451;51.960;6.250;2022-08-19T08:01:17;28.20;;;16.30;;
39772;SDS011;25451;51.960;6.250;2022-08-19T08:03:47;31.10;;;16.02;;
39772;SDS011;25451;51.960;6.250;2022-08-19T08:06:33;27.88;;;14.98;;
39772;SDS011;25451;51.960;6.250;2022-08-19T08:09:19;30.37;;;16.43;;
39772;SDS011;25451;51.960;6.250;2022-08-19T08:14:20;29.90;;;15.38;;
39772;SDS011;25451;51.960;6.250;2022-08-19T08:16:49;29.48;;;16.55;;
39772;SDS011;25451;51.960;6.250;2022-08-19T08:19:17;32.95;;;15.90;;
39772;SDS011;25451;51.960;6.250;2022-08-19T08:21:47;27.97;;;15.47;;
39772;SDS011;25451;51.960;6.250;2022-08-19T08:24:13;25.08;;;15.40;;
39772;SDS011;25451;51.960;6.250;2022-08-19T08:26:39;27.92;;;15.77;;
39772;SDS011;25451;51.960;6.250;2022-08-19T08:29:07;29.10;;;16.25;;
39772;SDS011;25451;51.960;6.250;2022-08-19T08:31:35;28.88;;;15.63;;
39772;SDS011;25451;51.960;6.250;2022-08-19T08:34:00;29.73;;;16.17;;
39772;SDS011;25451;51.960;6.250;2022-08-19T08:36:26;33.23;;;16.27;;
39772;SDS011;25451;51.960;6.250;2022-08-19T08:38:52;30.45;;;17.15;;
39772;SDS011;25451;51.960;6.250;2022-08-19T08:41:21;30.67;;;16.33;;
39772;SDS011;25451;51.960;6.250;2022-08-19T08:43:59;33.58;;;17.00;;
39772;SDS011;25451;51.960;6.250;2022-08-19T08:46:39;31.58;;;17.00;;
39772;SDS011;25451;51.960;6.250;2022-08-19T08:51:51;30.05;;;16.02;;
39772;SDS011;25451;51.960;6.250;2022-08-19T08:54:23;32.53;;;16.60;;
39772;SDS011;25451;51.960;6.250;2022-08-19T08:56:54;29.88;;;16.10;;
39772;SDS011;25451;51.960;6.250;2022-08-19T08:59:21;29.05;;;14.68;;
39772;SDS011;25451;51.960;6.250;2022-08-19T09:01:50;30.23;;;15.93;;
39772;SDS011;25451;51.960;6.250;2022-08-19T09:04:16;31.90;;;15.27;;
39772;SDS011;25451;51.960;6.250;2022-08-19T09:06:50;26.67;;;14.50;;
39772;SDS011;25451;51.960;6.250;2022-08-19T09:12:06;32.63;;;14.88;;
39772;SDS011;25451;51.960;6.250;2022-08-19T09:14:54;32.73;;;16.33;;
39772;SDS011;25451;51.960;6.250;2022-08-19T09:17:24;27.73;;;15.00;;
39772;SDS011;25451;51.960;6.250;2022-08-19T09:22:33;33.42;;;15.88;;
39772;SDS011;25451;51.960;6.250;2022-08-19T09:24:58;28.47;;;15.27;;
39772;SDS011;25451;51.960;6.250;2022-08-19T09:27:24;29.38;;;14.38;;
39772;SDS011;25451;51.960;6.250;2022-08-19T09:29:51;26.00;;;13.38;;
39772;SDS011;25451;51.960;6.250;2022-08-19T09:32:18;24.07;;;13.30;;
39772;SDS011;25451;51.960;6.250;2022-08-19T09:34:44;22.65;;;12.40;;
39772;SDS011;25451;51.960;6.250;2022-08-19T09:37:10;22.60;;;11.93;;
39772;SDS011;25451;51.960;6.250;2022-08-19T09:39:37;19.27;;;10.67;;
39772;SDS011;25451;51.960;6.250;2022-08-19T09:42:02;17.88;;;10.52;;
39772;SDS011;25451;51.960;6.250;2022-08-19T09:44:29;20.65;;;11.57;;
39772;SDS011;25451;51.960;6.250;2022-08-19T09:46:54;15.60;;;8.17;;
39772;SDS011;25451;51.960;6.250;2022-08-19T09:49:20;15.48;;;7.97;;
39772;SDS011;25451;51.960;6.250;2022-08-19T09:51:49;14.43;;;8.13;;
39772;SDS011;25451;51.960;6.250;2022-08-19T09:54:15;14.68;;;8.10;;
39772;SDS011;25451;51.960;6.250;2022-08-19T09:56:40;15.90;;;9.63;;
39772;SDS011;25451;51.960;6.250;2022-08-19T09:59:05;14.70;;;7.47;;
39772;SDS011;25451;51.960;6.250;2022-08-19T10:01:31;14.03;;;7.63;;
39772;SDS011;25451;51.960;6.250;2022-08-19T10:03:58;12.68;;;7.15;;
39772;SDS011;25451;51.960;6.250;2022-08-19T10:06:25;9.05;;;5.32;;
39772;SDS011;25451;51.960;6.250;2022-08-19T10:08:55;8.80;;;5.90;;
39772;SDS011;25451;51.960;6.250;2022-08-19T10:11:20;14.27;;;7.30;;
39772;SDS011;25451;51.960;6.250;2022-08-19T10:13:46;10.30;;;6.45;;
39772;SDS011;25451;51.960;6.250;2022-08-19T10:16:14;8.25;;;4.70;;
39772;SDS011;25451;51.960;6.250;2022-08-19T10:18:42;8.55;;;5.40;;
39772;SDS011;25451;51.960;6.250;2022-08-19T10:23:36;8.88;;;4.25;;
39772;SDS011;25451;51.960;6.250;2022-08-19T10:26:06;6.82;;;4.40;;
39772;SDS011;25451;51.960;6.250;2022-08-19T10:28:35;15.07;;;4.40;;
39772;SDS011;25451;51.960;6.250;2022-08-19T10:31:07;5.63;;;3.10;;
39772;SDS011;25451;51.960;6.250;2022-08-19T10:33:35;8.80;;;4.03;;
39772;SDS011;25451;51.960;6.250;2022-08-19T10:36:06;6.45;;;4.20;;
39772;SDS011;25451;51.960;6.250;2022-08-19T10:38:33;9.93;;;4.50;;
39772;SDS011;25451;51.960;6.250;2022-08-19T10:41:09;9.00;;;4.63;;
39772;SDS011;25451;51.960;6.250;2022-08-19T10:43:39;10.13;;;6.03;;
39772;SDS011;25451;51.960;6.250;2022-08-19T10:46:06;12.10;;;6.43;;
39772;SDS011;25451;51.960;6.250;2022-08-19T10:48:34;15.65;;;6.45;;
39772;SDS011;25451;51.960;6.250;2022-08-19T10:50:59;13.47;;;6.27;;
39772;SDS011;25451;51.960;6.250;2022-08-19T10:53:44;13.10;;;7.70;;
39772;SDS011;25451;51.960;6.250;2022-08-19T10:56:09;18.20;;;9.97;;
39772;SDS011;25451;51.960;6.250;2022-08-19T10:58:53;17.60;;;9.07;;
39772;SDS011;25451;51.960;6.250;2022-08-19T11:01:19;20.10;;;10.97;;
39772;SDS011;25451;51.960;6.250;2022-08-19T11:03:44;14.83;;;8.50;;
39772;SDS011;25451;51.960;6.250;2022-08-19T11:06:10;20.53;;;9.30;;
39772;SDS011;25451;51.960;6.250;2022-08-19T11:08:36;19.40;;;10.25;;
39772;SDS011;25451;51.960;6.250;2022-08-19T11:11:02;20.90;;;11.68;;
39772;SDS011;25451;51.960;6.250;2022-08-19T11:13:29;15.68;;;9.43;;
39772;SDS011;25451;51.960;6.250;2022-08-19T11:15:56;14.93;;;9.10;;
39772;SDS011;25451;51.960;6.250;2022-08-19T11:18:22;15.65;;;8.50;;
39772;SDS011;25451;51.960;6.250;2022-08-19T11:20:48;16.50;;;8.10;;
39772;SDS011;25451;51.960;6.250;2022-08-19T11:23:13;16.30;;;7.88;;
39772;SDS011;25451;51.960;6.250;2022-08-19T11:25:39;17.33;;;9.80;;
39772;SDS011;25451;51.960;6.250;2022-08-19T11:28:04;16.13;;;8.73;;
39772;SDS011;25451;51.960;6.250;2022-08-19T11:30:30;18.13;;;9.57;;
39772;SDS011;25451;51.960;6.250;2022-08-19T11:32:55;13.90;;;8.23;;
39772;SDS011;25451;51.960;6.250;2022-08-19T11:35:20;17.10;;;8.40;;
39772;SDS011;25451;51.960;6.250;2022-08-19T11:37:48;17.33;;;8.75;;
39772;SDS011;25451;51.960;6.250;2022-08-19T11:40:13;14.10;;;7.90;;
39772;SDS011;25451;51.960;6.250;2022-08-19T11:42:39;10.65;;;6.22;;
39772;SDS011;25451;51.960;6.250;2022-08-19T11:45:26;15.47;;;8.40;;
39772;SDS011;25451;51.960;6.250;2022-08-19T11:47:52;15.93;;;8.02;;
39772;SDS011;25451;51.960;6.250;2022-08-19T11:50:18;13.43;;;6.60;;
39772;SDS011;25451;51.960;6.250;2022-08-19T11:52:44;10.87;;;6.77;;
39772;SDS011;25451;51.960;6.250;2022-08-19T11:55:11;11.82;;;6.13;;
39772;SDS011;25451;51.960;6.250;2022-08-19T11:57:38;11.00;;;6.60;;
39772;SDS011;25451;51.960;6.250;2022-08-19T12:00:05;12.33;;;6.80;;
39772;SDS011;25451;51.960;6.250;2022-08-19T12:02:32;11.05;;;6.93;;
39772;SDS011;25451;51.960;6.250;2022-08-19T12:04:57;12.10;;;5.80;;
39772;SDS011;25451;51.960;6.250;2022-08-19T12:07:22;10.67;;;6.10;;
39772;SDS011;25451;51.960;6.250;2022-08-19T12:09:49;10.52;;;5.80;;
39772;SDS011;25451;51.960;6.250;2022-08-19T12:12:14;10.03;;;5.63;;
39772;SDS011;25451;51.960;6.250;2022-08-19T12:14:40;12.83;;;5.77;;
39772;SDS011;25451;51.960;6.250;2022-08-19T12:17:05;10.63;;;5.30;;
39772;SDS011;25451;51.960;6.250;2022-08-19T12:19:32;8.47;;;4.53;;
39772;SDS011;25451;51.960;6.250;2022-08-19T12:21:59;10.18;;;5.30;;
39772;SDS011;25451;51.960;6.250;2022-08-19T12:24:30;9.82;;;5.28;;
39772;SDS011;25451;51.960;6.250;2022-08-19T12:26:56;11.30;;;6.03;;
39772;SDS011;25451;51.960;6.250;2022-08-19T12:29:23;10.30;;;5.43;;
39772;SDS011;25451;51.960;6.250;2022-08-19T12:31:53;8.23;;;4.70;;
39772;SDS011;25451;51.960;6.250;2022-08-19T12:34:19;11.18;;;4.45;;
39772;SDS011;25451;51.960;6.250;2022-08-19T12:36:45;13.55;;;6.07;;
39772;SDS011;25451;51.960;6.250;2022-08-19T12:39:10;9.20;;;4.77;;
39772;SDS011;25451;51.960;6.250;2022-08-19T12:41:36;9.50;;;5.07;;
39772;SDS011;25451;51.960;6.250;2022-08-19T12:44:02;11.93;;;6.35;;
39772;SDS011;25451;51.960;6.250;2022-08-19T12:46:28;8.53;;;5.07;;
39772;SDS011;25451;51.960;6.250;2022-08-19T12:48:53;9.05;;;4.80;;
39772;SDS011;25451;51.960;6.250;2022-08-19T13:12:38;11.73;;;5.43;;
39772;SDS011;25451;51.960;6.250;2022-08-19T13:15:04;8.82;;;5.43;;
39772;SDS011;25451;51.960;6.250;2022-08-19T13:17:30;12.32;;;6.20;;
39772;SDS011;25451;51.960;6.250;2022-08-19T13:19:55;10.97;;;5.80;;
39772;SDS011;25451;51.960;6.250;2022-08-19T13:22:21;10.33;;;5.97;;
39772;SDS011;25451;51.960;6.250;2022-08-19T13:24:46;10.03;;;5.30;;
39772;SDS011;25451;51.960;6.250;2022-08-19T13:27:11;10.00;;;6.23;;
39772;SDS011;25451;51.960;6.250;2022-08-19T13:29:39;10.30;;;6.13;;
39772;SDS011;25451;51.960;6.250;2022-08-19T13:32:23;7.00;;;4.67;;
39772;SDS011;25451;51.960;6.250;2022-08-19T13:35:07;9.98;;;5.43;;
39772;SDS011;25451;51.960;6.250;2022-08-19T13:37:33;9.25;;;5.85;;
39772;SDS011;25451;51.960;6.250;2022-08-19T13:40:08;12.73;;;8.20;;
39772;SDS011;25451;51.960;6.250;2022-08-19T13:42:41;11.88;;;6.60;;
39772;SDS011;25451;51.960;6.250;2022-08-19T13:45:07;13.48;;;7.57;;
39772;SDS011;25451;51.960;6.250;2022-08-19T13:47:34;14.68;;;8.57;;
39772;SDS011;25451;51.960;6.250;2022-08-19T13:50:00;14.03;;;8.13;;
39772;SDS011;25451;51.960;6.250;2022-08-19T13:52:27;13.40;;;7.05;;
39772;SDS011;25451;51.960;6.250;2022-08-19T13:54:53;10.77;;;6.90;;
39772;SDS011;25451;51.960;6.250;2022-08-19T13:57:19;13.73;;;7.70;;
39772;SDS011;25451;51.960;6.250;2022-08-19T13:59:44;15.13;;;8.47;;
39772;SDS011;25451;51.960;6.250;2022-08-19T14:02:09;13.88;;;8.07;;
39772;SDS011;25451;51.960;6.250;2022-08-19T14:04:35;13.60;;;8.00;;
39772;SDS011;25451;51.960;6.250;2022-08-19T14:07:02;16.38;;;8.60;;
39772;SDS011;25451;51.960;6.250;2022-08-19T14:09:28;14.90;;;8.15;;
39772;SDS011;25451;51.960;6.250;2022-08-19T14:11:53;11.83;;;7.43;;
39772;SDS011;25451;51.960;6.250;2022-08-19T14:14:18;13.80;;;6.77;;
39772;SDS011;25451;51.960;6.250;2022-08-19T14:16:44;14.37;;;8.60;;
39772;SDS011;25451;51.960;6.250;2022-08-19T14:19:09;15.20;;;8.03;;
39772;SDS011;25451;51.960;6.250;2022-08-19T14:21:34;13.13;;;7.33;;
39772;SDS011;25451;51.960;6.250;2022-08-19T14:24:01;16.67;;;8.73;;
39772;SDS011;25451;51.960;6.250;2022-08-19T14:26:26;11.90;;;7.60;;
39772;SDS011;25451;51.960;6.250;2022-08-19T14:28:52;15.88;;;7.95;;
39772;SDS011;25451;51.960;6.250;2022-08-19T14:31:18;11.47;;;7.60;;
39772;SDS011;25451;51.960;6.250;2022-08-19T14:33:47;15.15;;;9.23;;
39772;SDS011;25451;51.960;6.250;2022-08-19T14:36:13;14.95;;;9.10;;
39772;SDS011;25451;51.960;6.250;2022-08-19T14:38:39;15.83;;;9.10;;
39772;SDS011;25451;51.960;6.250;2022-08-19T14:41:06;16.50;;;8.85;;
39772;SDS011;25451;51.960;6.250;2022-08-19T14:43:36;14.82;;;8.45;;
39772;SDS011;25451;51.960;6.250;2022-08-19T14:46:02;11.48;;;7.97;;
39772;SDS011;25451;51.960;6.250;2022-08-19T14:48:27;11.40;;;6.53;;
39772;SDS011;25451;51.960;6.250;2022-08-19T14:50:53;11.67;;;6.63;;
39772;SDS011;25451;51.960;6.250;2022-08-19T14:53:18;10.43;;;6.40;;
39772;SDS011;25451;51.960;6.250;2022-08-19T14:55:44;12.83;;;7.13;;
39772;SDS011;25451;51.960;6.250;2022-08-19T14:58:11;12.00;;;7.93;;
39772;SDS011;25451;51.960;6.250;2022-08-19T15:00:37;13.93;;;7.82;;
39772;SDS011;25451;51.960;6.250;2022-08-19T15:03:02;14.80;;;7.53;;
39772;SDS011;25451;51.960;6.250;2022-08-19T15:05:28;11.77;;;7.80;;
39772;SDS011;25451;51.960;6.250;2022-08-19T15:07:53;15.53;;;9.30;;
39772;SDS011;25451;51.960;6.250;2022-08-19T15:10:19;15.68;;;8.95;;
39772;SDS011;25451;51.960;6.250;2022-08-19T15:12:46;21.55;;;11.23;;
39772;SDS011;25451;51.960;6.250;2022-08-19T15:15:14;16.97;;;9.67;;
39772;SDS011;25451;51.960;6.250;2022-08-19T15:17:42;14.43;;;8.55;;